Terminal Aerodrome Forecast
Issued by NWS Jackson, KY

Home | Current Version | Previous Version | Text Only | Print | Product List | Glossary On
Versions: 1 2 3 4 5 6 7 8 9 10 11 12 13 14 15
832
FTUS43 KJKL 280120 AAA
TAFLOZ
TAF AMD
KLOZ 280120Z 2801/2824 VRB03KT P6SM VCTS FEW040CB BKN150
     FM280230 00000KT P6SM BKN150
     FM280700 00000KT 3SM BR BKN150
     FM281200 VRB05KT 3SM SHRA BR VCTS BKN040CB
     FM281600 VRB05KT 3SM SHRA BR VCTS SCT010 BKN020CB=

USA.gov is the U.S. government's official web portal to all federal, state and local government web resources and services.